sensor_id;sensor_type;location;lat;lon;timestamp;temperature;humidity
12060;DHT22;6091;51.432;6.880;2022-11-15T00:01:15;24.50;38.20
12060;DHT22;6091;51.432;6.880;2022-11-15T00:03:44;24.50;38.90
12060;DHT22;6091;51.432;6.880;2022-11-15T00:06:11;24.50;38.20
12060;DHT22;6091;51.432;6.880;2022-11-15T00:08:38;24.50;38.20
12060;DHT22;6091;51.432;6.880;2022-11-15T00:11:05;24.50;38.20
12060;DHT22;6091;51.432;6.880;2022-11-15T00:13:32;24.50;38.20
12060;DHT22;6091;51.432;6.880;2022-11-15T00:16:01;24.50;38.20
12060;DHT22;6091;51.432;6.880;2022-11-15T00:18:29;24.50;38.20
12060;DHT22;6091;51.432;6.880;2022-11-15T00:21:03;24.50;38.20
12060;DHT22;6091;51.432;6.880;2022-11-15T00:23:33;24.50;38.30
12060;DHT22;6091;51.432;6.880;2022-11-15T00:26:00;24.50;38.20
12060;DHT22;6091;51.432;6.880;2022-11-15T00:28:28;24.50;38.20
12060;DHT22;6091;51.432;6.880;2022-11-15T00:31:00;24.50;38.20
12060;DHT22;6091;51.432;6.880;2022-11-15T00:33:29;24.50;38.20
12060;DHT22;6091;51.432;6.880;2022-11-15T00:36:08;24.50;38.20
12060;DHT22;6091;51.432;6.880;2022-11-15T00:38:38;24.60;38.30
12060;DHT22;6091;51.432;6.880;2022-11-15T00:41:07;24.60;38.30
12060;DHT22;6091;51.432;6.880;2022-11-15T00:43:36;24.50;38.20
12060;DHT22;6091;51.432;6.880;2022-11-15T00:46:04;24.50;38.20
12060;DHT22;6091;51.432;6.880;2022-11-15T00:48:31;24.50;38.20
12060;DHT22;6091;51.432;6.880;2022-11-15T00:50:59;24.50;38.30
12060;DHT22;6091;51.432;6.880;2022-11-15T00:53:26;24.50;38.20
12060;DHT22;6091;51.432;6.880;2022-11-15T00:55:53;25.20;38.80
12060;DHT22;6091;51.432;6.880;2022-11-15T00:58:20;24.50;38.20
12060;DHT22;6091;51.432;6.880;2022-11-15T01:00:47;24.50;38.20
12060;DHT22;6091;51.432;6.880;2022-11-15T01:03:14;24.50;38.20
12060;DHT22;6091;51.432;6.880;2022-11-15T01:05:41;24.50;38.30
12060;DHT22;6091;51.432;6.880;2022-11-15T01:08:15;24.50;38.20
12060;DHT22;6091;51.432;6.880;2022-11-15T01:10:43;24.60;38.30
12060;DHT22;6091;51.432;6.880;2022-11-15T01:13:10;24.60;38.30
12060;DHT22;6091;51.432;6.880;2022-11-15T01:15:40;24.50;38.20
12060;DHT22;6091;51.432;6.880;2022-11-15T01:18:08;24.50;38.20
12060;DHT22;6091;51.432;6.880;2022-11-15T01:20:40;24.60;38.30
12060;DHT22;6091;51.432;6.880;2022-11-15T01:23:08;24.60;38.30
12060;DHT22;6091;51.432;6.880;2022-11-15T01:25:36;24.60;38.30
12060;DHT22;6091;51.432;6.880;2022-11-15T01:28:03;24.60;38.30
12060;DHT22;6091;51.432;6.880;2022-11-15T01:30:30;24.60;38.30
12060;DHT22;6091;51.432;6.880;2022-11-15T01:32:57;24.50;38.20
12060;DHT22;6091;51.432;6.880;2022-11-15T01:35:23;24.60;38.30
12060;DHT22;6091;51.432;6.880;2022-11-15T01:37:50;24.60;38.40
12060;DHT22;6091;51.432;6.880;2022-11-15T01:40:17;24.60;38.30
12060;DHT22;6091;51.432;6.880;2022-11-15T01:42:44;24.60;38.30
12060;DHT22;6091;51.432;6.880;2022-11-15T01:45:14;24.60;38.20
12060;DHT22;6091;51.432;6.880;2022-11-15T01:47:53;24.60;38.30
12060;DHT22;6091;51.432;6.880;2022-11-15T01:50:25;24.60;38.30
12060;DHT22;6091;51.432;6.880;2022-11-15T01:52:55;24.60;38.30
12060;DHT22;6091;51.432;6.880;2022-11-15T01:55:25;24.60;38.30
12060;DHT22;6091;51.432;6.880;2022-11-15T01:57:56;24.60;38.30
12060;DHT22;6091;51.432;6.880;2022-11-15T02:00:26;24.60;38.30
12060;DHT22;6091;51.432;6.880;2022-11-15T02:02:53;24.60;38.30
12060;DHT22;6091;51.432;6.880;2022-11-15T02:05:20;24.60;38.30
12060;DHT22;6091;51.432;6.880;2022-11-15T02:07:48;24.60;38.30
12060;DHT22;6091;51.432;6.880;2022-11-15T02:10:21;24.60;38.30
12060;DHT22;6091;51.432;6.880;2022-11-15T02:12:50;24.60;38.30
12060;DHT22;6091;51.432;6.880;2022-11-15T02:15:19;24.60;38.20
12060;DHT22;6091;51.432;6.880;2022-11-15T02:20:52;24.70;38.30
12060;DHT22;6091;51.432;6.880;2022-11-15T02:30:02;24.70;38.20
12060;DHT22;6091;51.432;6.880;2022-11-15T02:32:50;24.60;38.20
12060;DHT22;6091;51.432;6.880;2022-11-15T02:38:24;24.60;38.20
12060;DHT22;6091;51.432;6.880;2022-11-15T02:43:49;24.60;38.20
12060;DHT22;6091;51.432;6.880;2022-11-15T02:49:34;24.60;38.20
12060;DHT22;6091;51.432;6.880;2022-11-15T02:52:02;24.60;38.20
12060;DHT22;6091;51.432;6.880;2022-11-15T02:54:32;24.60;38.20
12060;DHT22;6091;51.432;6.880;2022-11-15T02:57:15;24.60;38.20
12060;DHT22;6091;51.432;6.880;2022-11-15T02:59:51;24.60;38.20
12060;DHT22;6091;51.432;6.880;2022-11-15T03:05:35;24.70;38.30
12060;DHT22;6091;51.432;6.880;2022-11-15T03:11:07;24.60;38.30
12060;DHT22;6091;51.432;6.880;2022-11-15T03:19:31;24.70;38.30
12060;DHT22;6091;51.432;6.880;2022-11-15T03:22:05;24.60;38.20
12060;DHT22;6091;51.432;6.880;2022-11-15T03:24:37;24.60;38.20
12060;DHT22;6091;51.432;6.880;2022-11-15T03:27:09;24.60;38.20
12060;DHT22;6091;51.432;6.880;2022-11-15T03:29:46;24.70;38.20
12060;DHT22;6091;51.432;6.880;2022-11-15T03:32:22;24.70;38.30
12060;DHT22;6091;51.432;6.880;2022-11-15T03:37:51;24.60;38.20
12060;DHT22;6091;51.432;6.880;2022-11-15T03:41:01;24.60;38.20
12060;DHT22;6091;51.432;6.880;2022-11-15T03:43:55;24.70;38.20
12060;DHT22;6091;51.432;6.880;2022-11-15T03:46:32;24.70;38.20
12060;DHT22;6091;51.432;6.880;2022-11-15T03:49:09;24.70;38.20
12060;DHT22;6091;51.432;6.880;2022-11-15T03:51:40;24.60;38.20
12060;DHT22;6091;51.432;6.880;2022-11-15T03:54:07;24.60;38.20
12060;DHT22;6091;51.432;6.880;2022-11-15T03:56:34;24.60;38.20
12060;DHT22;6091;51.432;6.880;2022-11-15T03:59:01;24.60;38.20
12060;DHT22;6091;51.432;6.880;2022-11-15T04:01:28;24.60;38.20
12060;DHT22;6091;51.432;6.880;2022-11-15T04:03:55;24.70;38.30
12060;DHT22;6091;51.432;6.880;2022-11-15T04:06:22;24.70;38.30
12060;DHT22;6091;51.432;6.880;2022-11-15T04:08:49;24.70;38.20
12060;DHT22;6091;51.432;6.880;2022-11-15T04:11:16;24.60;38.20
12060;DHT22;6091;51.432;6.880;2022-11-15T04:13:43;24.70;38.30
12060;DHT22;6091;51.432;6.880;2022-11-15T04:16:10;24.70;38.20
12060;DHT22;6091;51.432;6.880;2022-11-15T04:18:37;24.70;38.80
12060;DHT22;6091;51.432;6.880;2022-11-15T04:21:04;24.70;38.20
12060;DHT22;6091;51.432;6.880;2022-11-15T04:23:50;24.70;38.20
12060;DHT22;6091;51.432;6.880;2022-11-15T04:26:31;24.70;38.20
12060;DHT22;6091;51.432;6.880;2022-11-15T04:28:59;24.60;38.10
12060;DHT22;6091;51.432;6.880;2022-11-15T04:31:44;24.70;38.20
12060;DHT22;6091;51.432;6.880;2022-11-15T04:34:11;24.60;38.10
12060;DHT22;6091;51.432;6.880;2022-11-15T04:36:38;24.60;38.70
12060;DHT22;6091;51.432;6.880;2022-11-15T04:39:23;24.70;38.20
12060;DHT22;6091;51.432;6.880;2022-11-15T04:41:50;24.60;38.10
12060;DHT22;6091;51.432;6.880;2022-11-15T04:44:17;24.60;38.20
12060;DHT22;6091;51.432;6.880;2022-11-15T04:46:44;24.60;38.10
12060;DHT22;6091;51.432;6.880;2022-11-15T04:49:11;24.60;38.10
12060;DHT22;6091;51.432;6.880;2022-11-15T04:51:38;24.60;38.10
12060;DHT22;6091;51.432;6.880;2022-11-15T04:54:05;24.60;38.80
12060;DHT22;6091;51.432;6.880;2022-11-15T04:56:32;24.60;38.70
12060;DHT22;6091;51.432;6.880;2022-11-15T04:58:59;24.60;38.10
12060;DHT22;6091;51.432;6.880;2022-11-15T05:01:25;24.60;38.20
12060;DHT22;6091;51.432;6.880;2022-11-15T05:03:52;24.60;38.10
12060;DHT22;6091;51.432;6.880;2022-11-15T05:06:38;24.60;38.10
12060;DHT22;6091;51.432;6.880;2022-11-15T05:09:08;24.60;38.20
12060;DHT22;6091;51.432;6.880;2022-11-15T05:11:34;24.70;38.20
12060;DHT22;6091;51.432;6.880;2022-11-15T05:14:01;24.60;38.10
12060;DHT22;6091;51.432;6.880;2022-11-15T05:16:28;24.60;38.20
12060;DHT22;6091;51.432;6.880;2022-11-15T05:18:55;24.60;38.10
12060;DHT22;6091;51.432;6.880;2022-11-15T05:21:22;24.60;38.20
12060;DHT22;6091;51.432;6.880;2022-11-15T05:23:49;24.60;38.20
12060;DHT22;6091;51.432;6.880;2022-11-15T05:26:17;24.60;38.10
12060;DHT22;6091;51.432;6.880;2022-11-15T05:28:45;24.60;38.20
12060;DHT22;6091;51.432;6.880;2022-11-15T05:31:15;24.60;38.20
12060;DHT22;6091;51.432;6.880;2022-11-15T05:33:43;24.60;38.20
12060;DHT22;6091;51.432;6.880;2022-11-15T05:36:21;24.60;38.20
12060;DHT22;6091;51.432;6.880;2022-11-15T05:38:52;24.60;38.20
12060;DHT22;6091;51.432;6.880;2022-11-15T05:41:24;24.60;38.20
12060;DHT22;6091;51.432;6.880;2022-11-15T05:43:56;24.60;38.20
12060;DHT22;6091;51.432;6.880;2022-11-15T05:46:24;24.60;38.20
12060;DHT22;6091;51.432;6.880;2022-11-15T05:48:53;24.60;38.20
12060;DHT22;6091;51.432;6.880;2022-11-15T05:51:21;24.60;38.20
12060;DHT22;6091;51.432;6.880;2022-11-15T05:53:51;24.60;38.20
12060;DHT22;6091;51.432;6.880;2022-11-15T05:56:19;24.60;38.20
12060;DHT22;6091;51.432;6.880;2022-11-15T05:58:46;24.60;38.20
12060;DHT22;6091;51.432;6.880;2022-11-15T06:01:13;24.60;38.10
12060;DHT22;6091;51.432;6.880;2022-11-15T06:03:40;24.60;38.20
12060;DHT22;6091;51.432;6.880;2022-11-15T06:06:07;24.60;38.30
12060;DHT22;6091;51.432;6.880;2022-11-15T06:08:41;24.60;38.20
12060;DHT22;6091;51.432;6.880;2022-11-15T06:11:08;24.60;38.20
12060;DHT22;6091;51.432;6.880;2022-11-15T06:13:36;24.60;38.30
12060;DHT22;6091;51.432;6.880;2022-11-15T06:16:03;24.60;38.20
12060;DHT22;6091;51.432;6.880;2022-11-15T06:18:33;24.60;38.20
12060;DHT22;6091;51.432;6.880;2022-11-15T06:21:01;24.60;38.20
12060;DHT22;6091;51.432;6.880;2022-11-15T06:23:31;24.60;38.20
12060;DHT22;6091;51.432;6.880;2022-11-15T06:26:00;24.60;38.20
12060;DHT22;6091;51.432;6.880;2022-11-15T06:28:32;24.60;38.20
12060;DHT22;6091;51.432;6.880;2022-11-15T06:31:08;24.60;38.20
12060;DHT22;6091;51.432;6.880;2022-11-15T06:33:38;24.60;38.20
12060;DHT22;6091;51.432;6.880;2022-11-15T06:36:08;24.60;38.20
12060;DHT22;6091;51.432;6.880;2022-11-15T06:38:44;24.60;38.20
12060;DHT22;6091;51.432;6.880;2022-11-15T06:41:12;24.60;38.20
12060;DHT22;6091;51.432;6.880;2022-11-15T06:43:40;24.60;38.20
12060;DHT22;6091;51.432;6.880;2022-11-15T06:46:08;24.60;38.20
12060;DHT22;6091;51.432;6.880;2022-11-15T06:48:35;24.60;38.20
12060;DHT22;6091;51.432;6.880;2022-11-15T06:51:04;24.50;38.10
12060;DHT22;6091;51.432;6.880;2022-11-15T06:53:32;24.70;38.30
12060;DHT22;6091;51.432;6.880;2022-11-15T06:56:01;24.70;38.30
12060;DHT22;6091;51.432;6.880;2022-11-15T06:58:29;24.60;38.20
12060;DHT22;6091;51.432;6.880;2022-11-15T07:01:06;24.60;38.20
12060;DHT22;6091;51.432;6.880;2022-11-15T07:03:36;24.70;38.40
12060;DHT22;6091;51.432;6.880;2022-11-15T07:06:06;24.70;38.30
12060;DHT22;6091;51.432;6.880;2022-11-15T07:08:34;24.70;38.30
12060;DHT22;6091;51.432;6.880;2022-11-15T07:11:04;24.70;38.30
12060;DHT22;6091;51.432;6.880;2022-11-15T07:13:34;24.70;38.40
12060;DHT22;6091;51.432;6.880;2022-11-15T07:16:07;24.70;38.40
12060;DHT22;6091;51.432;6.880;2022-11-15T07:18:39;24.70;38.50
12060;DHT22;6091;51.432;6.880;2022-11-15T07:21:09;24.70;38.50
12060;DHT22;6091;51.432;6.880;2022-11-15T07:23:38;24.70;38.50
12060;DHT22;6091;51.432;6.880;2022-11-15T07:26:06;24.70;38.50
12060;DHT22;6091;51.432;6.880;2022-11-15T07:28:34;24.70;38.50
12060;DHT22;6091;51.432;6.880;2022-11-15T07:31:03;24.80;38.60
12060;DHT22;6091;51.432;6.880;2022-11-15T07:33:35;24.80;38.70
12060;DHT22;6091;51.432;6.880;2022-11-15T07:36:04;24.80;38.70
12060;DHT22;6091;51.432;6.880;2022-11-15T07:38:33;24.80;38.70
12060;DHT22;6091;51.432;6.880;2022-11-15T07:41:07;24.80;38.70
12060;DHT22;6091;51.432;6.880;2022-11-15T07:43:35;24.80;38.70
12060;DHT22;6091;51.432;6.880;2022-11-15T07:46:06;24.80;38.70
12060;DHT22;6091;51.432;6.880;2022-11-15T07:48:36;24.80;38.70
12060;DHT22;6091;51.432;6.880;2022-11-15T07:51:14;24.90;38.80
12060;DHT22;6091;51.432;6.880;2022-11-15T07:53:43;24.90;38.80
12060;DHT22;6091;51.432;6.880;2022-11-15T07:56:11;24.90;38.80
12060;DHT22;6091;51.432;6.880;2022-11-15T07:58:38;25.00;38.90
12060;DHT22;6091;51.432;6.880;2022-11-15T08:01:10;25.00;38.80
12060;DHT22;6091;51.432;6.880;2022-11-15T08:03:37;25.00;38.90
12060;DHT22;6091;51.432;6.880;2022-11-15T08:06:04;25.00;38.90
12060;DHT22;6091;51.432;6.880;2022-11-15T08:08:31;25.10;38.90
12060;DHT22;6091;51.432;6.880;2022-11-15T08:10:59;25.00;39.00
12060;DHT22;6091;51.432;6.880;2022-11-15T08:13:26;25.00;38.90
12060;DHT22;6091;51.432;6.880;2022-11-15T08:16:00;25.10;38.90
12060;DHT22;6091;51.432;6.880;2022-11-15T08:18:28;25.10;38.90
12060;DHT22;6091;51.432;6.880;2022-11-15T08:20:59;25.10;38.90
12060;DHT22;6091;51.432;6.880;2022-11-15T08:23:27;25.20;39.00
12060;DHT22;6091;51.432;6.880;2022-11-15T08:26:02;25.20;39.00
12060;DHT22;6091;51.432;6.880;2022-11-15T08:28:31;25.20;39.00
12060;DHT22;6091;51.432;6.880;2022-11-15T08:30:59;25.20;39.00
12060;DHT22;6091;51.432;6.880;2022-11-15T08:33:26;25.20;39.10
12060;DHT22;6091;51.432;6.880;2022-11-15T08:35:56;25.20;39.10
12060;DHT22;6091;51.432;6.880;2022-11-15T08:38:24;25.30;39.20
12060;DHT22;6091;51.432;6.880;2022-11-15T08:41:01;25.30;39.20
12060;DHT22;6091;51.432;6.880;2022-11-15T08:43:30;25.30;39.20
12060;DHT22;6091;51.432;6.880;2022-11-15T08:45:58;25.30;39.10
12060;DHT22;6091;51.432;6.880;2022-11-15T08:48:25;25.30;39.10
12060;DHT22;6091;51.432;6.880;2022-11-15T08:50:56;25.30;39.10
12060;DHT22;6091;51.432;6.880;2022-11-15T08:53:23;25.30;39.10
12060;DHT22;6091;51.432;6.880;2022-11-15T08:55:50;25.30;39.10
12060;DHT22;6091;51.432;6.880;2022-11-15T08:58:17;25.30;39.10
12060;DHT22;6091;51.432;6.880;2022-11-15T09:00:44;25.40;39.10
12060;DHT22;6091;51.432;6.880;2022-11-15T09:03:11;25.30;39.60
12060;DHT22;6091;51.432;6.880;2022-11-15T09:05:38;25.30;39.60
12060;DHT22;6091;51.432;6.880;2022-11-15T09:08:05;25.30;39.50
12060;DHT22;6091;51.432;6.880;2022-11-15T09:10:52;25.40;39.40
12060;DHT22;6091;51.432;6.880;2022-11-15T09:13:22;25.40;39.60
12060;DHT22;6091;51.432;6.880;2022-11-15T09:15:49;25.40;40.00
12060;DHT22;6091;51.432;6.880;2022-11-15T09:18:18;25.40;39.30
12060;DHT22;6091;51.432;6.880;2022-11-15T09:20:49;25.50;39.30
12060;DHT22;6091;51.432;6.880;2022-11-15T09:23:16;25.50;39.20
12060;DHT22;6091;51.432;6.880;2022-11-15T09:25:43;25.50;39.20
12060;DHT22;6091;51.432;6.880;2022-11-15T09:28:10;25.60;39.40
12060;DHT22;6091;51.432;6.880;2022-11-15T09:30:37;25.60;39.20
12060;DHT22;6091;51.432;6.880;2022-11-15T09:33:12;25.60;39.20
12060;DHT22;6091;51.432;6.880;2022-11-15T09:35:39;25.70;39.30
12060;DHT22;6091;51.432;6.880;2022-11-15T09:38:07;25.70;39.30
12060;DHT22;6091;51.432;6.880;2022-11-15T09:40:36;25.70;39.30
12060;DHT22;6091;51.432;6.880;2022-11-15T09:43:37;25.70;39.30
12060;DHT22;6091;51.432;6.880;2022-11-15T09:49:16;25.80;39.30
12060;DHT22;6091;51.432;6.880;2022-11-15T09:51:49;25.80;39.30
12060;DHT22;6091;51.432;6.880;2022-11-15T09:54:31;25.80;39.30
12060;DHT22;6091;51.432;6.880;2022-11-15T09:57:31;25.90;39.30
12060;DHT22;6091;51.432;6.880;2022-11-15T10:00:28;25.90;39.30
12060;DHT22;6091;51.432;6.880;2022-11-15T10:06:00;25.90;39.40
12060;DHT22;6091;51.432;6.880;2022-11-15T10:11:19;25.90;39.50
12060;DHT22;6091;51.432;6.880;2022-11-15T10:14:17;25.90;39.30
12060;DHT22;6091;51.432;6.880;2022-11-15T10:22:48;26.10;39.10
12060;DHT22;6091;51.432;6.880;2022-11-15T10:25:19;26.10;39.10
12060;DHT22;6091;51.432;6.880;2022-11-15T10:27:55;26.20;39.10
12060;DHT22;6091;51.432;6.880;2022-11-15T10:30:36;26.20;39.10
12060;DHT22;6091;51.432;6.880;2022-11-15T10:33:20;26.20;39.10
12060;DHT22;6091;51.432;6.880;2022-11-15T10:36:16;26.30;38.90
12060;DHT22;6091;51.432;6.880;2022-11-15T10:52:01;26.50;38.30
12060;DHT22;6091;51.432;6.880;2022-11-15T10:54:55;26.60;38.40
12060;DHT22;6091;51.432;6.880;2022-11-15T10:58:05;26.60;38.30
12060;DHT22;6091;51.432;6.880;2022-11-15T11:00:46;26.80;38.30
12060;DHT22;6091;51.432;6.880;2022-11-15T11:03:40;26.80;38.40
12060;DHT22;6091;51.432;6.880;2022-11-15T11:06:15;26.90;38.10
12060;DHT22;6091;51.432;6.880;2022-11-15T11:09:04;27.00;38.30
12060;DHT22;6091;51.432;6.880;2022-11-15T11:14:25;27.20;38.00
12060;DHT22;6091;51.432;6.880;2022-11-15T11:23:00;27.50;38.20
12060;DHT22;6091;51.432;6.880;2022-11-15T11:25:36;27.60;38.50
12060;DHT22;6091;51.432;6.880;2022-11-15T11:38:00;28.10;37.80
12060;DHT22;6091;51.432;6.880;2022-11-15T11:47:30;28.30;37.30
12060;DHT22;6091;51.432;6.880;2022-11-15T11:50:23;28.40;37.40
12060;DHT22;6091;51.432;6.880;2022-11-15T11:52:59;28.40;37.20
12060;DHT22;6091;51.432;6.880;2022-11-15T11:55:52;28.50;37.50
12060;DHT22;6091;51.432;6.880;2022-11-15T12:01:41;28.50;37.20
12060;DHT22;6091;51.432;6.880;2022-11-15T12:04:17;28.50;36.90
12060;DHT22;6091;51.432;6.880;2022-11-15T12:07:07;28.40;37.00
12060;DHT22;6091;51.432;6.880;2022-11-15T12:13:02;28.30;36.80
12060;DHT22;6091;51.432;6.880;2022-11-15T12:16:05;28.20;36.70
12060;DHT22;6091;51.432;6.880;2022-11-15T12:18:38;28.20;36.80
12060;DHT22;6091;51.432;6.880;2022-11-15T12:21:35;28.10;37.00
12060;DHT22;6091;51.432;6.880;2022-11-15T12:24:29;28.00;36.90
12060;DHT22;6091;51.432;6.880;2022-11-15T12:27:35;27.90;37.00
12060;DHT22;6091;51.432;6.880;2022-11-15T12:30:16;27.80;37.00
12060;DHT22;6091;51.432;6.880;2022-11-15T12:32:55;27.80;37.00
12060;DHT22;6091;51.432;6.880;2022-11-15T12:35:37;27.70;36.00
12060;DHT22;6091;51.432;6.880;2022-11-15T12:38:11;27.60;35.80
12060;DHT22;6091;51.432;6.880;2022-11-15T12:41:12;27.50;35.60
12060;DHT22;6091;51.432;6.880;2022-11-15T12:43:45;27.40;34.60
12060;DHT22;6091;51.432;6.880;2022-11-15T13:02:39;26.80;34.50
12060;DHT22;6091;51.432;6.880;2022-11-15T13:18:34;26.50;35.10
12060;DHT22;6091;51.432;6.880;2022-11-15T13:21:16;26.60;35.10
12060;DHT22;6091;51.432;6.880;2022-11-15T13:24:16;26.50;35.30
12060;DHT22;6091;51.432;6.880;2022-11-15T13:26:46;26.50;35.20
12060;DHT22;6091;51.432;6.880;2022-11-15T13:29:18;26.50;35.30
12060;DHT22;6091;51.432;6.880;2022-11-15T13:31:47;26.50;35.40
12060;DHT22;6091;51.432;6.880;2022-11-15T13:34:33;26.50;35.40
12060;DHT22;6091;51.432;6.880;2022-11-15T13:39:49;26.50;35.50
12060;DHT22;6091;51.432;6.880;2022-11-15T13:42:19;26.50;35.40
12060;DHT22;6091;51.432;6.880;2022-11-15T13:45:03;26.50;35.50
12060;DHT22;6091;51.432;6.880;2022-11-15T13:47:31;26.50;35.50
12060;DHT22;6091;51.432;6.880;2022-11-15T13:49:59;26.40;35.50
12060;DHT22;6091;51.432;6.880;2022-11-15T13:52:34;26.40;35.50
12060;DHT22;6091;51.432;6.880;2022-11-15T13:57:50;26.80;35.80
12060;DHT22;6091;51.432;6.880;2022-11-15T14:00:41;26.40;35.60
12060;DHT22;6091;51.432;6.880;2022-11-15T14:06:15;26.40;35.70
12060;DHT22;6091;51.432;6.880;2022-11-15T14:11:53;26.30;35.60
12060;DHT22;6091;51.432;6.880;2022-11-15T14:14:23;26.30;35.70
12060;DHT22;6091;51.432;6.880;2022-11-15T14:16:57;26.30;35.70
12060;DHT22;6091;51.432;6.880;2022-11-15T14:24:45;26.20;35.70
12060;DHT22;6091;51.432;6.880;2022-11-15T14:27:30;26.20;35.80
12060;DHT22;6091;51.432;6.880;2022-11-15T14:29:58;26.20;35.80
12060;DHT22;6091;51.432;6.880;2022-11-15T14:32:28;26.20;35.80
12060;DHT22;6091;51.432;6.880;2022-11-15T14:34:59;26.10;35.80
12060;DHT22;6091;51.432;6.880;2022-11-15T14:37:30;26.20;35.90
12060;DHT22;6091;51.432;6.880;2022-11-15T14:40:06;26.20;35.90
12060;DHT22;6091;51.432;6.880;2022-11-15T14:42:36;26.20;35.90
12060;DHT22;6091;51.432;6.880;2022-11-15T14:45:04;26.20;35.90
12060;DHT22;6091;51.432;6.880;2022-11-15T14:47:38;26.10;35.90
12060;DHT22;6091;51.432;6.880;2022-11-15T14:50:05;26.10;35.80
12060;DHT22;6091;51.432;6.880;2022-11-15T14:52:33;26.10;35.90
12060;DHT22;6091;51.432;6.880;2022-11-15T14:55:28;26.10;35.90
12060;DHT22;6091;51.432;6.880;2022-11-15T14:58:06;26.10;36.00
12060;DHT22;6091;51.432;6.880;2022-11-15T15:00:38;26.10;36.00
12060;DHT22;6091;51.432;6.880;2022-11-15T15:03:08;26.10;36.00
12060;DHT22;6091;51.432;6.880;2022-11-15T15:05:41;26.00;36.00
12060;DHT22;6091;51.432;6.880;2022-11-15T15:08:10;26.00;36.00
12060;DHT22;6091;51.432;6.880;2022-11-15T15:10:43;26.00;36.00
12060;DHT22;6091;51.432;6.880;2022-11-15T15:13:16;26.00;36.00
12060;DHT22;6091;51.432;6.880;2022-11-15T15:15:49;26.00;36.00
12060;DHT22;6091;51.432;6.880;2022-11-15T15:18:17;26.00;36.10
12060;DHT22;6091;51.432;6.880;2022-11-15T15:20:53;26.00;36.10
12060;DHT22;6091;51.432;6.880;2022-11-15T15:23:23;26.00;36.20
12060;DHT22;6091;51.432;6.880;2022-11-15T15:25:52;25.90;36.00
12060;DHT22;6091;51.432;6.880;2022-11-15T15:28:19;25.90;36.10
12060;DHT22;6091;51.432;6.880;2022-11-15T15:30:47;25.90;36.10
12060;DHT22;6091;51.432;6.880;2022-11-15T15:33:14;25.90;36.10
12060;DHT22;6091;51.432;6.880;2022-11-15T15:35:41;25.90;36.10
12060;DHT22;6091;51.432;6.880;2022-11-15T15:38:12;25.90;36.20
12060;DHT22;6091;51.432;6.880;2022-11-15T15:40:41;25.90;36.30
12060;DHT22;6091;51.432;6.880;2022-11-15T15:43:08;25.80;36.10
12060;DHT22;6091;51.432;6.880;2022-11-15T15:45:40;25.80;36.10
12060;DHT22;6091;51.432;6.880;2022-11-15T15:48:12;25.80;36.20
12060;DHT22;6091;51.432;6.880;2022-11-15T15:50:41;25.80;36.20
12060;DHT22;6091;51.432;6.880;2022-11-15T15:53:12;25.80;36.30
12060;DHT22;6091;51.432;6.880;2022-11-15T15:55:40;25.80;36.20
12060;DHT22;6091;51.432;6.880;2022-11-15T15:58:07;25.80;36.20
12060;DHT22;6091;51.432;6.880;2022-11-15T16:00:35;25.80;36.30
12060;DHT22;6091;51.432;6.880;2022-11-15T16:03:03;25.80;36.30
12060;DHT22;6091;51.432;6.880;2022-11-15T16:05:30;25.80;36.30
12060;DHT22;6091;51.432;6.880;2022-11-15T16:07:58;25.80;36.30
12060;DHT22;6091;51.432;6.880;2022-11-15T16:10:30;25.80;36.30
12060;DHT22;6091;51.432;6.880;2022-11-15T16:13:00;25.80;36.00
12060;DHT22;6091;51.432;6.880;2022-11-15T16:15:29;25.80;36.10
12060;DHT22;6091;51.432;6.880;2022-11-15T16:17:59;25.80;36.20
12060;DHT22;6091;51.432;6.880;2022-11-15T16:20:41;25.80;36.40
12060;DHT22;6091;51.432;6.880;2022-11-15T16:23:11;25.80;36.50
12060;DHT22;6091;51.432;6.880;2022-11-15T16:25:44;25.80;36.50
12060;DHT22;6091;51.432;6.880;2022-11-15T16:31:00;25.80;36.70
12060;DHT22;6091;51.432;6.880;2022-11-15T16:33:28;25.80;36.70
12060;DHT22;6091;51.432;6.880;2022-11-15T16:35:57;25.70;37.30
12060;DHT22;6091;51.432;6.880;2022-11-15T16:38:24;25.70;37.10
12060;DHT22;6091;51.432;6.880;2022-11-15T16:40:51;25.70;37.00
12060;DHT22;6091;51.432;6.880;2022-11-15T16:43:18;25.60;37.60
12060;DHT22;6091;51.432;6.880;2022-11-15T16:45:45;25.70;37.40
12060;DHT22;6091;51.432;6.880;2022-11-15T16:48:33;25.70;37.20
12060;DHT22;6091;51.432;6.880;2022-11-15T16:51:00;25.80;37.20
12060;DHT22;6091;51.432;6.880;2022-11-15T16:53:30;25.90;37.10
12060;DHT22;6091;51.432;6.880;2022-11-15T16:55:57;25.90;36.90
12060;DHT22;6091;51.432;6.880;2022-11-15T16:58:24;26.00;37.60
12060;DHT22;6091;51.432;6.880;2022-11-15T17:00:52;26.00;36.90
12060;DHT22;6091;51.432;6.880;2022-11-15T17:03:24;25.90;36.80
12060;DHT22;6091;51.432;6.880;2022-11-15T17:05:51;26.00;36.80
12060;DHT22;6091;51.432;6.880;2022-11-15T17:08:19;25.90;36.70
12060;DHT22;6091;51.432;6.880;2022-11-15T17:10:47;26.00;36.80
12060;DHT22;6091;51.432;6.880;2022-11-15T17:13:15;26.00;36.80
12060;DHT22;6091;51.432;6.880;2022-11-15T17:15:42;26.00;36.80
12060;DHT22;6091;51.432;6.880;2022-11-15T17:18:10;26.00;36.80
12060;DHT22;6091;51.432;6.880;2022-11-15T17:20:39;25.90;36.70
12060;DHT22;6091;51.432;6.880;2022-11-15T17:23:15;25.90;36.80
12060;DHT22;6091;51.432;6.880;2022-11-15T17:25:43;26.00;36.90
12060;DHT22;6091;51.432;6.880;2022-11-15T17:28:10;25.90;36.80
12060;DHT22;6091;51.432;6.880;2022-11-15T17:30:40;25.90;36.70
12060;DHT22;6091;51.432;6.880;2022-11-15T17:33:08;25.90;36.80
12060;DHT22;6091;51.432;6.880;2022-11-15T17:35:35;25.90;36.80
12060;DHT22;6091;51.432;6.880;2022-11-15T17:38:02;25.90;36.80
12060;DHT22;6091;51.432;6.880;2022-11-15T17:40:30;26.00;36.80
12060;DHT22;6091;51.432;6.880;2022-11-15T17:42:57;25.90;36.80
12060;DHT22;6091;51.432;6.880;2022-11-15T17:45:24;25.90;36.80
12060;DHT22;6091;51.432;6.880;2022-11-15T17:47:50;25.90;36.80
12060;DHT22;6091;51.432;6.880;2022-11-15T17:50:19;25.90;36.80
12060;DHT22;6091;51.432;6.880;2022-11-15T17:52:46;25.80;36.80
12060;DHT22;6091;51.432;6.880;2022-11-15T17:55:13;25.80;36.80
12060;DHT22;6091;51.432;6.880;2022-11-15T17:57:42;25.80;36.80
12060;DHT22;6091;51.432;6.880;2022-11-15T18:00:10;25.80;36.90
12060;DHT22;6091;51.432;6.880;2022-11-15T18:02:37;25.80;36.90
12060;DHT22;6091;51.432;6.880;2022-11-15T18:05:05;25.80;36.90
12060;DHT22;6091;51.432;6.880;2022-11-15T18:07:32;25.80;36.90
12060;DHT22;6091;51.432;6.880;2022-11-15T18:10:00;25.80;36.90
12060;DHT22;6091;51.432;6.880;2022-11-15T18:12:27;25.80;36.90
12060;DHT22;6091;51.432;6.880;2022-11-15T18:14:54;25.80;36.90
12060;DHT22;6091;51.432;6.880;2022-11-15T18:17:21;25.80;36.90
12060;DHT22;6091;51.432;6.880;2022-11-15T18:19:49;25.80;37.60
12060;DHT22;6091;51.432;6.880;2022-11-15T18:22:16;25.70;36.90
12060;DHT22;6091;51.432;6.880;2022-11-15T18:24:44;25.80;37.00
12060;DHT22;6091;51.432;6.880;2022-11-15T18:27:12;25.70;36.90
12060;DHT22;6091;51.432;6.880;2022-11-15T18:29:39;26.20;37.20
12060;DHT22;6091;51.432;6.880;2022-11-15T18:32:06;25.80;37.00
12060;DHT22;6091;51.432;6.880;2022-11-15T18:34:40;25.80;37.00
12060;DHT22;6091;51.432;6.880;2022-11-15T18:37:07;25.80;37.00